sensor_id;sensor_type;location;lat;lon;timestamp;pressure;altitude;pressure_sealevel;temperature;humidity
8573;BME280;4324;42.012;24.872;2023-02-24T00:00:05;99224.38;;;9.40;74.59
8573;BME280;4324;42.012;24.872;2023-02-24T00:02:56;99147.13;;;9.02;74.89
8573;BME280;4324;42.012;24.872;2023-02-24T00:05:23;99219.84;;;9.50;75.06
8573;BME280;4324;42.012;24.872;2023-02-24T00:07:50;99206.25;;;9.45;74.94
8573;BME280;4324;42.012;24.872;2023-02-24T00:10:17;99220.38;;;9.54;74.98
8573;BME280;4324;42.012;24.872;2023-02-24T00:12:47;99203.00;;;9.51;75.20
8573;BME280;4324;42.012;24.872;2023-02-24T00:15:15;99215.22;;;9.52;75.16
8573;BME280;4324;42.012;24.872;2023-02-24T00:17:42;99209.94;;;9.52;75.13
8573;BME280;4324;42.012;24.872;2023-02-24T00:20:10;99189.03;;;9.41;75.50
8573;BME280;4324;42.012;24.872;2023-02-24T00:22:37;99200.88;;;9.55;75.49
8573;BME280;4324;42.012;24.872;2023-02-24T00:25:05;99202.38;;;9.57;75.25
8573;BME280;4324;42.012;24.872;2023-02-24T00:27:33;99204.63;;;9.52;75.25
8573;BME280;4324;42.012;24.872;2023-02-24T00:30:01;99199.16;;;9.45;75.41
8573;BME280;4324;42.012;24.872;2023-02-24T00:32:31;99176.28;;;9.36;75.62
8573;BME280;4324;42.012;24.872;2023-02-24T00:35:00;99190.06;;;9.48;75.95
8573;BME280;4324;42.012;24.872;2023-02-24T00:37:27;99190.75;;;9.50;75.67
8573;BME280;4324;42.012;24.872;2023-02-24T00:39:54;99184.78;;;9.48;75.78
8573;BME280;4324;42.012;24.872;2023-02-24T00:42:23;99163.53;;;9.32;75.83
8573;BME280;4324;42.012;24.872;2023-02-24T00:44:50;99182.78;;;9.42;76.04
8573;BME280;4324;42.012;24.872;2023-02-24T00:47:20;99183.44;;;9.44;76.34
8573;BME280;4324;42.012;24.872;2023-02-24T00:49:48;99170.53;;;9.41;76.30
8573;BME280;4324;42.012;24.872;2023-02-24T00:52:17;99172.88;;;9.44;76.44
8573;BME280;4324;42.012;24.872;2023-02-24T00:54:44;99167.59;;;9.44;76.06
8573;BME280;4324;42.012;24.872;2023-02-24T00:57:12;99166.41;;;9.38;76.15
8573;BME280;4324;42.012;24.872;2023-02-24T00:59:40;99161.56;;;9.34;76.09
8573;BME280;4324;42.012;24.872;2023-02-24T01:02:12;99157.88;;;9.27;76.06
8573;BME280;4324;42.012;24.872;2023-02-24T01:04:40;99153.56;;;9.26;76.42
8573;BME280;4324;42.012;24.872;2023-02-24T01:07:09;99152.91;;;9.24;76.26
8573;BME280;4324;42.012;24.872;2023-02-24T01:09:39;99093.28;;;8.77;76.29
8573;BME280;4324;42.012;24.872;2023-02-24T01:12:07;99155.81;;;9.12;76.49
8573;BME280;4324;42.012;24.872;2023-02-24T01:14:52;99137.31;;;9.12;76.57
8573;BME280;4324;42.012;24.872;2023-02-24T01:17:20;99145.28;;;9.20;76.72
8573;BME280;4324;42.012;24.872;2023-02-24T01:19:48;99120.41;;;9.05;76.67
8573;BME280;4324;42.012;24.872;2023-02-24T01:22:17;99137.38;;;9.20;76.35
8573;BME280;4324;42.012;24.872;2023-02-24T01:24:45;99139.78;;;9.14;76.34
8573;BME280;4324;42.012;24.872;2023-02-24T01:27:13;99137.97;;;9.14;76.46
8573;BME280;4324;42.012;24.872;2023-02-24T01:29:42;99135.50;;;9.13;76.33
8573;BME280;4324;42.012;24.872;2023-02-24T01:32:13;99108.81;;;8.98;76.86
8573;BME280;4324;42.012;24.872;2023-02-24T01:34:43;99136.03;;;9.16;76.88
8573;BME280;4324;42.012;24.872;2023-02-24T01:37:12;99131.69;;;9.15;76.62
8573;BME280;4324;42.012;24.872;2023-02-24T01:39:41;99125.38;;;9.08;76.57
8573;BME280;4324;42.012;24.872;2023-02-24T01:42:11;99133.16;;;9.10;76.59
8573;BME280;4324;42.012;24.872;2023-02-24T01:45:15;99135.94;;;9.08;77.17
8573;BME280;4324;42.012;24.872;2023-02-24T01:47:42;99128.16;;;9.07;76.99
8573;BME280;4324;42.012;24.872;2023-02-24T01:50:12;99134.28;;;9.07;76.69
8573;BME280;4324;42.012;24.872;2023-02-24T01:52:44;99127.94;;;9.00;76.63
8573;BME280;4324;42.012;24.872;2023-02-24T01:55:17;99104.53;;;8.79;76.51
8573;BME280;4324;42.012;24.872;2023-02-24T01:57:47;99135.81;;;8.92;76.70
8573;BME280;4324;42.012;24.872;2023-02-24T02:00:17;99134.69;;;8.94;76.95
8573;BME280;4324;42.012;24.872;2023-02-24T02:03:07;99131.88;;;8.96;76.95
8573;BME280;4324;42.012;24.872;2023-02-24T02:05:37;99078.25;;;8.60;76.79
8573;BME280;4324;42.012;24.872;2023-02-24T02:08:07;99128.56;;;8.94;76.59
8573;BME280;4324;42.012;24.872;2023-02-24T02:10:40;99106.53;;;8.67;76.60
8573;BME280;4324;42.012;24.872;2023-02-24T02:13:09;99125.66;;;8.79;76.83
8573;BME280;4324;42.012;24.872;2023-02-24T02:15:44;99124.94;;;8.77;77.12
8573;BME280;4324;42.012;24.872;2023-02-24T02:18:18;99129.13;;;8.80;76.96
8573;BME280;4324;42.012;24.872;2023-02-24T02:21:19;99124.50;;;8.82;76.71
8573;BME280;4324;42.012;24.872;2023-02-24T02:24:06;99121.78;;;8.73;76.38
8573;BME280;4324;42.012;24.872;2023-02-24T02:27:02;99065.13;;;8.32;76.54
8573;BME280;4324;42.012;24.872;2023-02-24T02:35:34;99130.16;;;8.69;76.96
8573;BME280;4324;42.012;24.872;2023-02-24T02:38:07;99125.00;;;8.67;76.97
8573;BME280;4324;42.012;24.872;2023-02-24T02:40:41;99133.34;;;8.72;77.15
8573;BME280;4324;42.012;24.872;2023-02-24T02:43:14;99134.31;;;8.71;77.26
8573;BME280;4324;42.012;24.872;2023-02-24T02:45:46;99122.09;;;8.70;77.24
8573;BME280;4324;42.012;24.872;2023-02-24T02:48:25;99129.41;;;8.77;77.57
8573;BME280;4324;42.012;24.872;2023-02-24T02:50:59;99128.41;;;8.78;77.44
8573;BME280;4324;42.012;24.872;2023-02-24T02:53:32;99131.22;;;8.76;77.29
8573;BME280;4324;42.012;24.872;2023-02-24T02:56:08;99115.44;;;8.66;77.62
8573;BME280;4324;42.012;24.872;2023-02-24T02:58:40;99127.38;;;8.70;77.64
8573;BME280;4324;42.012;24.872;2023-02-24T03:01:13;99134.84;;;8.75;77.63
8573;BME280;4324;42.012;24.872;2023-02-24T03:03:45;99122.09;;;8.70;77.62
8573;BME280;4324;42.012;24.872;2023-02-24T03:06:17;99125.41;;;8.72;77.69
8573;BME280;4324;42.012;24.872;2023-02-24T03:08:50;99130.41;;;8.76;77.59
8573;BME280;4324;42.012;24.872;2023-02-24T03:11:20;99059.38;;;8.19;77.57
8573;BME280;4324;42.012;24.872;2023-02-24T03:13:50;99146.13;;;8.67;77.74
8573;BME280;4324;42.012;24.872;2023-02-24T03:16:21;99130.09;;;8.61;77.93
8573;BME280;4324;42.012;24.872;2023-02-24T03:18:50;99142.25;;;8.71;77.96
8573;BME280;4324;42.012;24.872;2023-02-24T03:21:26;99152.94;;;8.70;77.93
8573;BME280;4324;42.012;24.872;2023-02-24T03:23:57;99123.00;;;8.61;77.91
8573;BME280;4324;42.012;24.872;2023-02-24T03:26:30;99122.94;;;8.53;77.73
8573;BME280;4324;42.012;24.872;2023-02-24T03:29:05;99118.91;;;8.49;78.02
8573;BME280;4324;42.012;24.872;2023-02-24T03:31:40;99133.31;;;8.55;77.97
8573;BME280;4324;42.012;24.872;2023-02-24T03:34:14;99145.19;;;8.68;78.09
8573;BME280;4324;42.012;24.872;2023-02-24T03:36:46;99124.66;;;8.62;77.91
8573;BME280;4324;42.012;24.872;2023-02-24T03:39:14;99141.56;;;8.69;78.03
8573;BME280;4324;42.012;24.872;2023-02-24T03:41:47;99141.72;;;8.68;78.00
8573;BME280;4324;42.012;24.872;2023-02-24T03:44:20;99110.03;;;8.50;78.08
8573;BME280;4324;42.012;24.872;2023-02-24T03:46:52;99131.69;;;8.71;78.35
8573;BME280;4324;42.012;24.872;2023-02-24T03:49:20;99120.44;;;8.69;78.36
8573;BME280;4324;42.012;24.872;2023-02-24T03:52:02;99125.66;;;8.79;78.16
8573;BME280;4324;42.012;24.872;2023-02-24T03:54:54;99115.38;;;8.76;77.96
8573;BME280;4324;42.012;24.872;2023-02-24T03:57:30;99069.44;;;8.51;77.78
8573;BME280;4324;42.012;24.872;2023-02-24T04:00:07;99111.97;;;8.84;78.08
8573;BME280;4324;42.012;24.872;2023-02-24T04:02:49;99105.56;;;8.86;78.12
8573;BME280;4324;42.012;24.872;2023-02-24T04:05:22;99101.66;;;8.90;78.05
8573;BME280;4324;42.012;24.872;2023-02-24T04:07:57;99098.63;;;8.85;78.22
8573;BME280;4324;42.012;24.872;2023-02-24T04:10:30;99103.53;;;8.80;78.17
8573;BME280;4324;42.012;24.872;2023-02-24T04:13:02;99090.09;;;8.73;78.21
8573;BME280;4324;42.012;24.872;2023-02-24T04:15:37;99103.53;;;8.80;78.41
8573;BME280;4324;42.012;24.872;2023-02-24T04:18:12;99107.53;;;8.84;78.36
8573;BME280;4324;42.012;24.872;2023-02-24T04:20:41;99101.78;;;8.89;78.35
8573;BME280;4324;42.012;24.872;2023-02-24T04:23:15;99103.59;;;8.88;78.26
8573;BME280;4324;42.012;24.872;2023-02-24T04:25:44;99095.44;;;8.82;78.41
8573;BME280;4324;42.012;24.872;2023-02-24T04:28:13;99090.16;;;8.82;78.28
8573;BME280;4324;42.012;24.872;2023-02-24T04:30:47;99089.34;;;8.81;78.28
8573;BME280;4324;42.012;24.872;2023-02-24T04:33:16;99087.81;;;8.79;78.08
8573;BME280;4324;42.012;24.872;2023-02-24T04:35:44;99081.81;;;8.68;78.44
8573;BME280;4324;42.012;24.872;2023-02-24T04:38:13;99079.31;;;8.67;78.37
8573;BME280;4324;42.012;24.872;2023-02-24T04:40:40;99084.06;;;8.63;78.22
8573;BME280;4324;42.012;24.872;2023-02-24T04:43:08;99044.28;;;8.39;78.13
8573;BME280;4324;42.012;24.872;2023-02-24T04:45:35;99040.91;;;8.37;78.52
8573;BME280;4324;42.012;24.872;2023-02-24T04:48:04;99067.56;;;8.61;78.36
8573;BME280;4324;42.012;24.872;2023-02-24T04:50:38;99067.69;;;8.60;78.31
8573;BME280;4324;42.012;24.872;2023-02-24T04:53:07;99084.28;;;8.70;78.48
8573;BME280;4324;42.012;24.872;2023-02-24T04:55:38;99077.50;;;8.67;78.56
8573;BME280;4324;42.012;24.872;2023-02-24T04:58:06;99083.47;;;8.69;78.47
8573;BME280;4324;42.012;24.872;2023-02-24T05:00:35;99079.47;;;8.65;78.58
8573;BME280;4324;42.012;24.872;2023-02-24T05:03:06;99088.44;;;8.72;78.69
8573;BME280;4324;42.012;24.872;2023-02-24T05:05:33;99080.53;;;8.72;78.82
8573;BME280;4324;42.012;24.872;2023-02-24T05:08:02;99055.03;;;8.63;78.56
8573;BME280;4324;42.012;24.872;2023-02-24T05:10:36;99074.25;;;8.73;78.57
8573;BME280;4324;42.012;24.872;2023-02-24T05:13:04;99079.25;;;8.77;78.58
8573;BME280;4324;42.012;24.872;2023-02-24T05:15:32;99087.75;;;8.70;78.62
8573;BME280;4324;42.012;24.872;2023-02-24T05:18:00;99092.38;;;8.68;78.75
8573;BME280;4324;42.012;24.872;2023-02-24T05:20:34;99092.38;;;8.68;78.96
8573;BME280;4324;42.012;24.872;2023-02-24T05:23:18;99087.94;;;8.69;78.87
8573;BME280;4324;42.012;24.872;2023-02-24T05:25:47;99092.91;;;8.72;78.69
8573;BME280;4324;42.012;24.872;2023-02-24T05:28:19;99091.84;;;8.65;78.88
8573;BME280;4324;42.012;24.872;2023-02-24T05:30:47;99090.16;;;8.64;78.92
8573;BME280;4324;42.012;24.872;2023-02-24T05:33:15;99071.63;;;8.56;79.11
8573;BME280;4324;42.012;24.872;2023-02-24T05:35:46;99091.22;;;8.71;78.89
8573;BME280;4324;42.012;24.872;2023-02-24T05:38:13;99096.72;;;8.78;78.90
8573;BME280;4324;42.012;24.872;2023-02-24T05:40:44;99094.09;;;8.78;78.96
8573;BME280;4324;42.012;24.872;2023-02-24T05:43:14;99100.72;;;8.82;78.91
8573;BME280;4324;42.012;24.872;2023-02-24T05:45:43;99096.13;;;8.84;78.65
8573;BME280;4324;42.012;24.872;2023-02-24T05:48:10;99098.78;;;8.84;78.66
8573;BME280;4324;42.012;24.872;2023-02-24T05:50:39;99102.78;;;8.88;78.81
8573;BME280;4324;42.012;24.872;2023-02-24T05:53:10;99085.88;;;8.81;78.60
8573;BME280;4324;42.012;24.872;2023-02-24T05:55:37;99103.47;;;8.90;78.71
8573;BME280;4324;42.012;24.872;2023-02-24T05:58:04;99100.81;;;8.90;78.77
8573;BME280;4324;42.012;24.872;2023-02-24T06:00:34;99091.69;;;8.84;79.02
8573;BME280;4324;42.012;24.872;2023-02-24T06:03:03;99089.09;;;8.92;78.89
8573;BME280;4324;42.012;24.872;2023-02-24T06:05:35;99100.09;;;9.06;78.50
8573;BME280;4324;42.012;24.872;2023-02-24T06:08:04;99090.72;;;9.11;78.79
8573;BME280;4324;42.012;24.872;2023-02-24T06:10:37;99097.75;;;9.20;78.92
8573;BME280;4324;42.012;24.872;2023-02-24T06:13:06;99100.44;;;9.29;78.55
8573;BME280;4324;42.012;24.872;2023-02-24T06:15:36;99110.69;;;9.32;78.58
8573;BME280;4324;42.012;24.872;2023-02-24T06:18:03;99107.06;;;9.33;78.50
8573;BME280;4324;42.012;24.872;2023-02-24T06:20:32;99103.41;;;9.34;78.58
8573;BME280;4324;42.012;24.872;2023-02-24T06:22:58;99097.00;;;9.36;78.60
8573;BME280;4324;42.012;24.872;2023-02-24T06:25:28;99101.00;;;9.40;78.64
8573;BME280;4324;42.012;24.872;2023-02-24T06:27:58;99097.84;;;9.37;78.62
8573;BME280;4324;42.012;24.872;2023-02-24T06:30:26;99096.19;;;9.36;78.51
8573;BME280;4324;42.012;24.872;2023-02-24T06:32:54;99090.59;;;9.39;78.75
8573;BME280;4324;42.012;24.872;2023-02-24T06:35:21;99094.97;;;9.56;78.58
8573;BME280;4324;42.012;24.872;2023-02-24T06:37:48;99073.00;;;9.56;78.39
8573;BME280;4324;42.012;24.872;2023-02-24T06:40:16;99086.25;;;9.64;78.21
8573;BME280;4324;42.012;24.872;2023-02-24T06:42:44;99081.94;;;9.63;78.03
8573;BME280;4324;42.012;24.872;2023-02-24T06:45:12;99078.97;;;9.58;78.53
8573;BME280;4324;42.012;24.872;2023-02-24T06:47:39;99084.09;;;9.67;78.48
8573;BME280;4324;42.012;24.872;2023-02-24T06:50:10;99088.47;;;9.77;78.42
8573;BME280;4324;42.012;24.872;2023-02-24T06:52:37;99078.88;;;9.76;78.11
8573;BME280;4324;42.012;24.872;2023-02-24T06:55:08;99067.56;;;9.57;78.15
8573;BME280;4324;42.012;24.872;2023-02-24T06:57:51;99080.50;;;9.68;78.54
8573;BME280;4324;42.012;24.872;2023-02-24T07:00:23;99081.00;;;9.72;78.62
8573;BME280;4324;42.012;24.872;2023-02-24T07:03:05;99076.91;;;9.86;78.28
8573;BME280;4324;42.012;24.872;2023-02-24T07:05:42;99052.16;;;9.87;78.10
8573;BME280;4324;42.012;24.872;2023-02-24T07:08:16;99053.84;;;10.04;77.69
8573;BME280;4324;42.012;24.872;2023-02-24T07:10:51;99064.16;;;10.24;77.37
8573;BME280;4324;42.012;24.872;2023-02-24T07:13:18;99073.28;;;10.37;77.43
8573;BME280;4324;42.012;24.872;2023-02-24T07:15:45;99065.66;;;10.34;77.10
8573;BME280;4324;42.012;24.872;2023-02-24T07:18:14;99075.13;;;10.37;77.20
8573;BME280;4324;42.012;24.872;2023-02-24T07:20:43;99076.44;;;10.41;77.33
8573;BME280;4324;42.012;24.872;2023-02-24T07:23:11;99071.81;;;10.43;77.33
8573;BME280;4324;42.012;24.872;2023-02-24T07:25:42;99075.31;;;10.44;77.33
8573;BME280;4324;42.012;24.872;2023-02-24T07:28:11;99065.84;;;10.41;77.55
8573;BME280;4324;42.012;24.872;2023-02-24T07:30:39;99046.81;;;10.29;77.51
8573;BME280;4324;42.012;24.872;2023-02-24T07:33:06;99057.59;;;10.44;77.26
8573;BME280;4324;42.012;24.872;2023-02-24T07:35:33;99053.31;;;10.43;77.38
8573;BME280;4324;42.012;24.872;2023-02-24T07:38:03;99045.84;;;10.38;77.38
8573;BME280;4324;42.012;24.872;2023-02-24T07:40:30;99056.78;;;10.44;77.29
8573;BME280;4324;42.012;24.872;2023-02-24T07:42:58;99055.44;;;10.39;77.29
8573;BME280;4324;42.012;24.872;2023-02-24T07:45:26;99051.78;;;10.40;77.11
8573;BME280;4324;42.012;24.872;2023-02-24T07:47:54;99053.63;;;10.40;77.32
8573;BME280;4324;42.012;24.872;2023-02-24T07:50:21;99038.75;;;10.47;77.32
8573;BME280;4324;42.012;24.872;2023-02-24T07:52:48;99001.19;;;10.27;77.29
8573;BME280;4324;42.012;24.872;2023-02-24T07:55:17;99040.06;;;10.59;77.06
8573;BME280;4324;42.012;24.872;2023-02-24T07:57:46;99045.19;;;10.69;76.93
8573;BME280;4324;42.012;24.872;2023-02-24T08:00:15;99049.66;;;10.77;76.73
8573;BME280;4324;42.012;24.872;2023-02-24T08:02:46;99039.22;;;10.75;76.69
8573;BME280;4324;42.012;24.872;2023-02-24T08:05:14;99036.59;;;10.67;76.43
8573;BME280;4324;42.012;24.872;2023-02-24T08:07:42;99036.91;;;10.39;76.69
8573;BME280;4324;42.012;24.872;2023-02-24T08:10:15;98954.59;;;9.76;76.90
8573;BME280;4324;42.012;24.872;2023-02-24T08:12:52;99051.59;;;10.26;76.92
8573;BME280;4324;42.012;24.872;2023-02-24T08:15:20;99043.63;;;10.17;77.19
8573;BME280;4324;42.012;24.872;2023-02-24T08:17:52;99017.16;;;10.09;77.41
8573;BME280;4324;42.012;24.872;2023-02-24T08:20:28;99044.34;;;10.28;77.62
8573;BME280;4324;42.012;24.872;2023-02-24T08:23:00;99039.66;;;10.22;77.50
8573;BME280;4324;42.012;24.872;2023-02-24T08:25:30;99038.66;;;10.23;77.36
8573;BME280;4324;42.012;24.872;2023-02-24T08:28:03;99031.91;;;10.20;77.58
8573;BME280;4324;42.012;24.872;2023-02-24T08:30:33;99047.66;;;10.30;77.55
8573;BME280;4324;42.012;24.872;2023-02-24T08:33:04;99051.38;;;10.19;77.58
8573;BME280;4324;42.012;24.872;2023-02-24T08:35:34;99036.31;;;10.03;77.74
8573;BME280;4324;42.012;24.872;2023-02-24T08:38:03;99048.22;;;9.99;77.96
8573;BME280;4324;42.012;24.872;2023-02-24T08:40:33;99044.03;;;9.88;78.36
8573;BME280;4324;42.012;24.872;2023-02-24T08:43:18;99049.81;;;9.84;78.33
8573;BME280;4324;42.012;24.872;2023-02-24T08:45:58;99039.16;;;9.67;78.59
8573;BME280;4324;42.012;24.872;2023-02-24T08:48:29;99002.88;;;9.35;79.00
8573;BME280;4324;42.012;24.872;2023-02-24T08:51:06;99057.00;;;9.65;79.12
8573;BME280;4324;42.012;24.872;2023-02-24T08:53:34;99058.00;;;9.64;79.33
8573;BME280;4324;42.012;24.872;2023-02-24T08:56:05;99058.63;;;9.58;79.22
8573;BME280;4324;42.012;24.872;2023-02-24T08:58:39;99064.19;;;9.47;79.79
8573;BME280;4324;42.012;24.872;2023-02-24T09:01:16;99043.28;;;9.28;80.02
8573;BME280;4324;42.012;24.872;2023-02-24T09:03:46;99055.34;;;9.30;81.08
8573;BME280;4324;42.012;24.872;2023-02-24T09:06:14;99034.94;;;9.14;81.24
8573;BME280;4324;42.012;24.872;2023-02-24T09:08:44;99046.25;;;9.25;81.40
8573;BME280;4324;42.012;24.872;2023-02-24T09:11:19;99051.56;;;9.33;81.42
8573;BME280;4324;42.012;24.872;2023-02-24T09:13:48;99039.66;;;9.29;81.29
8573;BME280;4324;42.012;24.872;2023-02-24T09:16:23;99049.28;;;9.38;81.31
8573;BME280;4324;42.012;24.872;2023-02-24T09:18:50;98973.59;;;8.94;81.14
8573;BME280;4324;42.012;24.872;2023-02-24T09:21:31;98997.34;;;9.20;80.86
8573;BME280;4324;42.012;24.872;2023-02-24T09:24:31;99037.50;;;9.58;80.68
8573;BME280;4324;42.012;24.872;2023-02-24T09:26:58;99026.28;;;9.64;80.49
8573;BME280;4324;42.012;24.872;2023-02-24T09:29:27;99022.16;;;9.70;80.57
8573;BME280;4324;42.012;24.872;2023-02-24T09:32:01;99035.78;;;9.83;80.34
8573;BME280;4324;42.012;24.872;2023-02-24T09:34:32;99013.28;;;9.79;80.07
8573;BME280;4324;42.012;24.872;2023-02-24T09:36:59;99014.09;;;9.80;79.91
8573;BME280;4324;42.012;24.872;2023-02-24T09:39:31;99005.19;;;9.81;80.17
8573;BME280;4324;42.012;24.872;2023-02-24T09:42:22;99009.53;;;9.98;80.13
8573;BME280;4324;42.012;24.872;2023-02-24T09:45:02;99003.25;;;10.07;79.98
8573;BME280;4324;42.012;24.872;2023-02-24T09:47:39;98978.63;;;10.15;80.08
8573;BME280;4324;42.012;24.872;2023-02-24T09:50:27;98984.63;;;10.41;79.78
8573;BME280;4324;42.012;24.872;2023-02-24T09:53:11;98983.44;;;10.60;79.39
8573;BME280;4324;42.012;24.872;2023-02-24T09:55:47;98993.38;;;10.75;79.18
8573;BME280;4324;42.012;24.872;2023-02-24T09:58:36;98981.47;;;10.71;78.75
8573;BME280;4324;42.012;24.872;2023-02-24T10:01:33;98959.63;;;10.77;79.04
8573;BME280;4324;42.012;24.872;2023-02-24T10:04:18;98960.56;;;10.92;78.93
8573;BME280;4324;42.012;24.872;2023-02-24T10:06:49;98969.25;;;11.25;78.77
8573;BME280;4324;42.012;24.872;2023-02-24T10:09:21;98963.41;;;11.46;78.59
8573;BME280;4324;42.012;24.872;2023-02-24T10:11:54;98960.13;;;11.67;77.92
8573;BME280;4324;42.012;24.872;2023-02-24T10:14:35;98934.59;;;11.66;77.51
8573;BME280;4324;42.012;24.872;2023-02-24T10:17:10;98929.50;;;11.65;77.51
8573;BME280;4324;42.012;24.872;2023-02-24T10:19:49;98947.69;;;11.68;77.73
8573;BME280;4324;42.012;24.872;2023-02-24T10:22:32;98940.25;;;11.63;77.74
8573;BME280;4324;42.012;24.872;2023-02-24T10:25:21;98918.63;;;11.51;77.87
8573;BME280;4324;42.012;24.872;2023-02-24T10:27:57;98929.78;;;11.70;77.76
8573;BME280;4324;42.012;24.872;2023-02-24T10:30:35;98914.06;;;11.68;77.95
8573;BME280;4324;42.012;24.872;2023-02-24T10:33:19;98923.06;;;11.82;77.63
8573;BME280;4324;42.012;24.872;2023-02-24T10:36:02;98903.53;;;11.75;77.38
8573;BME280;4324;42.012;24.872;2023-02-24T10:38:34;98902.91;;;11.73;77.22
8573;BME280;4324;42.012;24.872;2023-02-24T10:41:01;98894.22;;;11.79;77.03
8573;BME280;4324;42.012;24.872;2023-02-24T10:43:31;98893.03;;;11.90;77.12
8573;BME280;4324;42.012;24.872;2023-02-24T10:46:20;98893.28;;;12.03;76.76
8573;BME280;4324;42.012;24.872;2023-02-24T10:48:52;98891.84;;;12.15;76.43
8573;BME280;4324;42.012;24.872;2023-02-24T10:51:28;98868.03;;;12.07;76.02
8573;BME280;4324;42.012;24.872;2023-02-24T10:54:12;98848.25;;;11.95;76.37
8573;BME280;4324;42.012;24.872;2023-02-24T10:57:02;98879.09;;;12.10;75.90
8573;BME280;4324;42.012;24.872;2023-02-24T10:59:46;98876.34;;;12.04;75.61
8573;BME280;4324;42.012;24.872;2023-02-24T11:02:46;98874.22;;;11.99;75.85
8573;BME280;4324;42.012;24.872;2023-02-24T11:05:40;98871.34;;;11.86;75.58
8573;BME280;4324;42.012;24.872;2023-02-24T11:08:21;98844.03;;;11.77;76.09
8573;BME280;4324;42.012;24.872;2023-02-24T11:11:09;98831.38;;;11.88;75.88
8573;BME280;4324;42.012;24.872;2023-02-24T11:13:47;98849.84;;;12.19;75.43
8573;BME280;4324;42.012;24.872;2023-02-24T11:16:41;98849.47;;;12.22;75.04
8573;BME280;4324;42.012;24.872;2023-02-24T11:19:28;98849.84;;;12.19;74.99
8573;BME280;4324;42.012;24.872;2023-02-24T11:21:57;98839.06;;;12.20;75.06
8573;BME280;4324;42.012;24.872;2023-02-24T11:24:25;98844.72;;;12.17;74.83
8573;BME280;4324;42.012;24.872;2023-02-24T11:26:53;98833.06;;;12.03;74.71
8573;BME280;4324;42.012;24.872;2023-02-24T11:29:32;98816.19;;;11.96;74.90
8573;BME280;4324;42.012;24.872;2023-02-24T11:32:15;98785.03;;;11.98;75.12
8573;BME280;4324;42.012;24.872;2023-02-24T11:34:52;98821.84;;;12.31;74.52
8573;BME280;4324;42.012;24.872;2023-02-24T11:37:36;98811.31;;;12.23;74.50
8573;BME280;4324;42.012;24.872;2023-02-24T11:40:09;98771.81;;;12.05;74.35
8573;BME280;4324;42.012;24.872;2023-02-24T11:42:41;98778.91;;;12.13;74.41
8573;BME280;4324;42.012;24.872;2023-02-24T11:45:20;98800.53;;;12.39;75.00
8573;BME280;4324;42.012;24.872;2023-02-24T11:47:53;98806.38;;;12.49;74.47
8573;BME280;4324;42.012;24.872;2023-02-24T11:50:29;98804.28;;;12.59;74.12
8573;BME280;4324;42.012;24.872;2023-02-24T11:53:04;98796.16;;;12.61;73.62
8573;BME280;4324;42.012;24.872;2023-02-24T11:55:35;98793.75;;;12.51;73.61
8573;BME280;4324;42.012;24.872;2023-02-24T11:58:13;98748.88;;;12.12;73.50
8573;BME280;4324;42.012;24.872;2023-02-24T12:00:48;98746.88;;;12.14;73.63
8573;BME280;4324;42.012;24.872;2023-02-24T12:03:24;98777.56;;;12.46;73.72
8573;BME280;4324;42.012;24.872;2023-02-24T12:05:56;98773.31;;;12.67;73.43
8573;BME280;4324;42.012;24.872;2023-02-24T12:08:32;98731.66;;;12.52;73.40
8573;BME280;4324;42.012;24.872;2023-02-24T12:11:04;98783.91;;;12.96;73.46
8573;BME280;4324;42.012;24.872;2023-02-24T12:13:37;98775.38;;;12.86;73.09
8573;BME280;4324;42.012;24.872;2023-02-24T12:16:09;98736.97;;;12.52;72.83
8573;BME280;4324;42.012;24.872;2023-02-24T12:18:42;98755.75;;;12.66;72.97
8573;BME280;4324;42.012;24.872;2023-02-24T12:21:15;98732.22;;;12.48;72.78
8573;BME280;4324;42.012;24.872;2023-02-24T12:23:46;98743.84;;;12.47;72.71
8573;BME280;4324;42.012;24.872;2023-02-24T12:26:17;98737.78;;;12.38;73.04
8573;BME280;4324;42.012;24.872;2023-02-24T12:28:59;98737.06;;;12.44;73.18
8573;BME280;4324;42.012;24.872;2023-02-24T12:31:35;98752.16;;;12.58;73.20
8573;BME280;4324;42.012;24.872;2023-02-24T12:34:11;98743.19;;;12.59;73.46
8573;BME280;4324;42.012;24.872;2023-02-24T12:37:06;98736.34;;;12.50;72.91
8573;BME280;4324;42.012;24.872;2023-02-24T12:39:52;98731.13;;;12.42;72.78
8573;BME280;4324;42.012;24.872;2023-02-24T12:42:28;98727.28;;;12.30;72.75
8573;BME280;4324;42.012;24.872;2023-02-24T12:45:03;98729.56;;;12.18;72.68
8573;BME280;4324;42.012;24.872;2023-02-24T12:47:46;98726.25;;;12.01;72.71
8573;BME280;4324;42.012;24.872;2023-02-24T12:50:25;98747.13;;;12.04;72.77
8573;BME280;4324;42.012;24.872;2023-02-24T12:53:02;98734.13;;;11.95;72.88
8573;BME280;4324;42.012;24.872;2023-02-24T12:55:42;98736.34;;;11.91;72.76
8573;BME280;4324;42.012;24.872;2023-02-24T12:58:13;98709.09;;;11.74;72.86
8573;BME280;4324;42.012;24.872;2023-02-24T13:00:51;98716.97;;;11.82;72.97
8573;BME280;4324;42.012;24.872;2023-02-24T13:03:34;98717.47;;;11.86;72.83
8573;BME280;4324;42.012;24.872;2023-02-24T13:06:12;98725.78;;;11.83;72.96
8573;BME280;4324;42.012;24.872;2023-02-24T13:08:50;98706.75;;;11.79;72.86
8573;BME280;4324;42.012;24.872;2023-02-24T13:11:28;98723.13;;;11.83;72.87
8573;BME280;4324;42.012;24.872;2023-02-24T13:14:04;98707.91;;;11.77;72.95
8573;BME280;4324;42.012;24.872;2023-02-24T13:16:34;98705.16;;;11.70;72.74
8573;BME280;4324;42.012;24.872;2023-02-24T13:19:06;98700.31;;;11.74;72.82
8573;BME280;4324;42.012;24.872;2023-02-24T13:21:53;98696.94;;;11.80;72.77
8573;BME280;4324;42.012;24.872;2023-02-24T13:24:22;98701.03;;;11.91;72.69
8573;BME280;4324;42.012;24.872;2023-02-24T13:26:51;98689.09;;;12.01;72.52
8573;BME280;4324;42.012;24.872;2023-02-24T13:29:17;98688.03;;;12.10;72.12
8573;BME280;4324;42.012;24.872;2023-02-24T13:31:47;98686.09;;;12.19;72.07
8573;BME280;4324;42.012;24.872;2023-02-24T13:34:28;98664.03;;;12.19;71.66
8573;BME280;4324;42.012;24.872;2023-02-24T13:36:56;98679.78;;;12.35;71.64
8573;BME280;4324;42.012;24.872;2023-02-24T13:39:31;98670.06;;;12.42;71.60
8573;BME280;4324;42.012;24.872;2023-02-24T13:42:05;98669.94;;;12.50;71.21
8573;BME280;4324;42.012;24.872;2023-02-24T13:44:32;98672.59;;;12.50;71.03
8573;BME280;4324;42.012;24.872;2023-02-24T13:47:39;98671.34;;;12.46;71.19
8573;BME280;4324;42.012;24.872;2023-02-24T13:50:21;98661.81;;;12.37;70.99
8573;BME280;4324;42.012;24.872;2023-02-24T13:53:19;98663.41;;;12.31;70.91
8573;BME280;4324;42.012;24.872;2023-02-24T13:56:05;98657.53;;;12.21;71.17